sensor_id;sensor_type;location;lat;lon;timestamp;P1;durP1;ratioP1;P2;durP2;ratioP2
11823;SDS011;5969;50.780;7.726;2022-12-18T00:01:58;18.27;;;11.80;;
11823;SDS011;5969;50.780;7.726;2022-12-18T00:04:25;18.50;;;12.55;;
11823;SDS011;5969;50.780;7.726;2022-12-18T00:06:54;17.02;;;12.30;;
11823;SDS011;5969;50.780;7.726;2022-12-18T00:09:21;18.90;;;12.80;;
11823;SDS011;5969;50.780;7.726;2022-12-18T00:11:48;18.35;;;11.85;;
11823;SDS011;5969;50.780;7.726;2022-12-18T00:14:15;19.90;;;14.10;;
11823;SDS011;5969;50.780;7.726;2022-12-18T00:16:43;19.85;;;14.00;;
11823;SDS011;5969;50.780;7.726;2022-12-18T00:19:10;24.10;;;14.10;;
11823;SDS011;5969;50.780;7.726;2022-12-18T00:21:38;18.40;;;13.27;;
11823;SDS011;5969;50.780;7.726;2022-12-18T00:24:06;19.35;;;13.05;;
11823;SDS011;5969;50.780;7.726;2022-12-18T00:26:34;19.30;;;12.23;;
11823;SDS011;5969;50.780;7.726;2022-12-18T00:29:03;22.30;;;13.20;;
11823;SDS011;5969;50.780;7.726;2022-12-18T00:31:31;21.33;;;12.43;;
11823;SDS011;5969;50.780;7.726;2022-12-18T00:33:58;22.58;;;12.00;;
11823;SDS011;5969;50.780;7.726;2022-12-18T00:36:26;19.33;;;12.45;;
11823;SDS011;5969;50.780;7.726;2022-12-18T00:38:55;24.30;;;12.18;;
11823;SDS011;5969;50.780;7.726;2022-12-18T00:41:24;17.92;;;12.20;;
11823;SDS011;5969;50.780;7.726;2022-12-18T00:44:09;20.52;;;12.50;;
11823;SDS011;5969;50.780;7.726;2022-12-18T00:46:38;18.92;;;12.52;;
11823;SDS011;5969;50.780;7.726;2022-12-18T00:49:05;22.08;;;13.70;;
11823;SDS011;5969;50.780;7.726;2022-12-18T00:51:32;24.73;;;13.52;;
11823;SDS011;5969;50.780;7.726;2022-12-18T00:53:59;24.00;;;13.85;;
11823;SDS011;5969;50.780;7.726;2022-12-18T00:56:27;22.75;;;13.90;;
11823;SDS011;5969;50.780;7.726;2022-12-18T00:58:54;20.50;;;13.20;;
11823;SDS011;5969;50.780;7.726;2022-12-18T01:01:21;20.77;;;13.63;;
11823;SDS011;5969;50.780;7.726;2022-12-18T01:03:48;20.60;;;12.75;;
11823;SDS011;5969;50.780;7.726;2022-12-18T01:06:16;19.50;;;12.15;;
11823;SDS011;5969;50.780;7.726;2022-12-18T01:08:43;20.73;;;13.13;;
11823;SDS011;5969;50.780;7.726;2022-12-18T01:11:10;21.00;;;12.95;;
11823;SDS011;5969;50.780;7.726;2022-12-18T01:13:40;19.80;;;12.38;;
11823;SDS011;5969;50.780;7.726;2022-12-18T01:16:07;18.10;;;11.35;;
11823;SDS011;5969;50.780;7.726;2022-12-18T01:18:39;19.58;;;11.80;;
11823;SDS011;5969;50.780;7.726;2022-12-18T01:21:07;19.77;;;12.43;;
11823;SDS011;5969;50.780;7.726;2022-12-18T01:23:34;16.15;;;12.43;;
11823;SDS011;5969;50.780;7.726;2022-12-18T01:26:04;18.70;;;12.23;;
11823;SDS011;5969;50.780;7.726;2022-12-18T01:28:31;17.48;;;11.15;;
11823;SDS011;5969;50.780;7.726;2022-12-18T01:31:09;18.45;;;11.85;;
11823;SDS011;5969;50.780;7.726;2022-12-18T01:33:40;17.75;;;10.23;;
11823;SDS011;5969;50.780;7.726;2022-12-18T01:36:08;16.98;;;10.75;;
11823;SDS011;5969;50.780;7.726;2022-12-18T01:38:40;17.50;;;10.80;;
11823;SDS011;5969;50.780;7.726;2022-12-18T01:41:07;18.27;;;10.20;;
11823;SDS011;5969;50.780;7.726;2022-12-18T01:43:45;13.02;;;9.85;;
11823;SDS011;5969;50.780;7.726;2022-12-18T01:46:18;17.52;;;11.70;;
11823;SDS011;5969;50.780;7.726;2022-12-18T01:48:50;14.15;;;10.40;;
11823;SDS011;5969;50.780;7.726;2022-12-18T01:51:19;16.73;;;10.77;;
11823;SDS011;5969;50.780;7.726;2022-12-18T01:53:46;16.50;;;10.38;;
11823;SDS011;5969;50.780;7.726;2022-12-18T01:56:16;16.73;;;10.43;;
11823;SDS011;5969;50.780;7.726;2022-12-18T01:58:47;18.85;;;10.57;;
11823;SDS011;5969;50.780;7.726;2022-12-18T02:01:21;15.38;;;9.73;;
11823;SDS011;5969;50.780;7.726;2022-12-18T02:03:49;11.93;;;9.25;;
11823;SDS011;5969;50.780;7.726;2022-12-18T02:06:18;16.75;;;10.90;;
11823;SDS011;5969;50.780;7.726;2022-12-18T02:08:49;17.70;;;10.85;;
11823;SDS011;5969;50.780;7.726;2022-12-18T02:11:28;18.52;;;12.32;;
11823;SDS011;5969;50.780;7.726;2022-12-18T02:14:06;19.15;;;11.45;;
11823;SDS011;5969;50.780;7.726;2022-12-18T02:16:45;18.20;;;11.15;;
11823;SDS011;5969;50.780;7.726;2022-12-18T02:19:22;17.70;;;11.38;;
11823;SDS011;5969;50.780;7.726;2022-12-18T02:22:07;16.20;;;10.98;;
11823;SDS011;5969;50.780;7.726;2022-12-18T02:24:49;18.67;;;10.23;;
11823;SDS011;5969;50.780;7.726;2022-12-18T02:27:25;16.95;;;10.52;;
11823;SDS011;5969;50.780;7.726;2022-12-18T02:29:54;21.15;;;10.77;;
11823;SDS011;5969;50.780;7.726;2022-12-18T02:32:24;16.10;;;10.70;;
11823;SDS011;5969;50.780;7.726;2022-12-18T02:34:54;15.57;;;11.13;;
11823;SDS011;5969;50.780;7.726;2022-12-18T02:37:23;17.38;;;10.43;;
11823;SDS011;5969;50.780;7.726;2022-12-18T02:39:52;15.38;;;10.15;;
11823;SDS011;5969;50.780;7.726;2022-12-18T02:42:21;16.50;;;9.60;;
11823;SDS011;5969;50.780;7.726;2022-12-18T02:44:50;16.70;;;10.75;;
11823;SDS011;5969;50.780;7.726;2022-12-18T02:47:22;15.55;;;9.95;;
11823;SDS011;5969;50.780;7.726;2022-12-18T02:49:53;18.02;;;11.23;;
11823;SDS011;5969;50.780;7.726;2022-12-18T02:52:30;15.43;;;9.98;;
11823;SDS011;5969;50.780;7.726;2022-12-18T02:55:05;16.02;;;10.30;;
11823;SDS011;5969;50.780;7.726;2022-12-18T02:57:42;14.63;;;10.20;;
11823;SDS011;5969;50.780;7.726;2022-12-18T03:00:17;14.98;;;9.55;;
11823;SDS011;5969;50.780;7.726;2022-12-18T03:02:47;14.32;;;9.45;;
11823;SDS011;5969;50.780;7.726;2022-12-18T03:05:19;16.33;;;10.05;;
11823;SDS011;5969;50.780;7.726;2022-12-18T03:07:51;13.55;;;9.10;;
11823;SDS011;5969;50.780;7.726;2022-12-18T03:10:24;14.70;;;9.32;;
11823;SDS011;5969;50.780;7.726;2022-12-18T03:12:55;16.13;;;9.98;;
11823;SDS011;5969;50.780;7.726;2022-12-18T03:15:29;18.10;;;9.98;;
11823;SDS011;5969;50.780;7.726;2022-12-18T03:18:01;13.45;;;8.63;;
11823;SDS011;5969;50.780;7.726;2022-12-18T03:20:31;13.88;;;8.60;;
11823;SDS011;5969;50.780;7.726;2022-12-18T03:23:02;16.50;;;8.52;;
11823;SDS011;5969;50.780;7.726;2022-12-18T03:25:34;11.77;;;8.45;;
11823;SDS011;5969;50.780;7.726;2022-12-18T03:28:03;15.13;;;8.70;;
11823;SDS011;5969;50.780;7.726;2022-12-18T03:30:35;13.95;;;8.85;;
11823;SDS011;5969;50.780;7.726;2022-12-18T03:33:07;15.50;;;9.65;;
11823;SDS011;5969;50.780;7.726;2022-12-18T03:35:37;15.02;;;8.80;;
11823;SDS011;5969;50.780;7.726;2022-12-18T03:38:08;15.55;;;9.35;;
11823;SDS011;5969;50.780;7.726;2022-12-18T03:40:39;11.65;;;8.13;;
11823;SDS011;5969;50.780;7.726;2022-12-18T03:43:13;11.98;;;8.50;;
11823;SDS011;5969;50.780;7.726;2022-12-18T03:45:48;13.93;;;8.45;;
11823;SDS011;5969;50.780;7.726;2022-12-18T03:48:21;13.73;;;8.50;;
11823;SDS011;5969;50.780;7.726;2022-12-18T03:50:56;14.52;;;8.27;;
11823;SDS011;5969;50.780;7.726;2022-12-18T03:53:27;12.45;;;8.60;;
11823;SDS011;5969;50.780;7.726;2022-12-18T03:56:02;16.65;;;8.60;;
11823;SDS011;5969;50.780;7.726;2022-12-18T03:58:31;13.23;;;8.85;;
11823;SDS011;5969;50.780;7.726;2022-12-18T04:01:02;13.70;;;9.40;;
11823;SDS011;5969;50.780;7.726;2022-12-18T04:03:34;14.07;;;8.90;;
11823;SDS011;5969;50.780;7.726;2022-12-18T04:06:02;15.55;;;9.77;;
11823;SDS011;5969;50.780;7.726;2022-12-18T04:08:31;14.13;;;9.30;;
11823;SDS011;5969;50.780;7.726;2022-12-18T04:10:59;15.15;;;8.40;;
11823;SDS011;5969;50.780;7.726;2022-12-18T04:13:27;15.07;;;9.00;;
11823;SDS011;5969;50.780;7.726;2022-12-18T04:15:55;16.38;;;9.73;;
11823;SDS011;5969;50.780;7.726;2022-12-18T04:18:23;16.25;;;9.13;;
11823;SDS011;5969;50.780;7.726;2022-12-18T04:20:50;14.48;;;9.23;;
11823;SDS011;5969;50.780;7.726;2022-12-18T04:23:17;12.73;;;8.30;;
11823;SDS011;5969;50.780;7.726;2022-12-18T04:25:45;14.95;;;8.57;;
11823;SDS011;5969;50.780;7.726;2022-12-18T04:28:12;12.80;;;9.43;;
11823;SDS011;5969;50.780;7.726;2022-12-18T04:30:39;11.45;;;8.15;;
11823;SDS011;5969;50.780;7.726;2022-12-18T04:33:08;12.30;;;8.63;;
11823;SDS011;5969;50.780;7.726;2022-12-18T04:35:37;15.10;;;9.07;;
11823;SDS011;5969;50.780;7.726;2022-12-18T04:38:05;14.93;;;9.57;;
11823;SDS011;5969;50.780;7.726;2022-12-18T04:40:33;14.50;;;9.18;;
11823;SDS011;5969;50.780;7.726;2022-12-18T04:43:00;15.05;;;9.70;;
11823;SDS011;5969;50.780;7.726;2022-12-18T04:45:26;12.90;;;8.77;;
11823;SDS011;5969;50.780;7.726;2022-12-18T04:47:53;14.30;;;8.63;;
11823;SDS011;5969;50.780;7.726;2022-12-18T04:50:20;15.43;;;9.10;;
11823;SDS011;5969;50.780;7.726;2022-12-18T04:52:48;14.13;;;9.18;;
11823;SDS011;5969;50.780;7.726;2022-12-18T04:55:15;14.15;;;8.73;;
11823;SDS011;5969;50.780;7.726;2022-12-18T04:57:42;14.48;;;8.73;;
11823;SDS011;5969;50.780;7.726;2022-12-18T05:00:09;13.52;;;8.43;;
11823;SDS011;5969;50.780;7.726;2022-12-18T05:02:37;12.80;;;8.38;;
11823;SDS011;5969;50.780;7.726;2022-12-18T05:05:05;15.48;;;8.52;;
11823;SDS011;5969;50.780;7.726;2022-12-18T05:07:32;15.57;;;8.88;;
11823;SDS011;5969;50.780;7.726;2022-12-18T05:10:00;13.60;;;7.85;;
11823;SDS011;5969;50.780;7.726;2022-12-18T05:12:27;14.18;;;8.15;;
11823;SDS011;5969;50.780;7.726;2022-12-18T05:14:54;12.68;;;8.45;;
11823;SDS011;5969;50.780;7.726;2022-12-18T05:17:20;12.88;;;9.27;;
11823;SDS011;5969;50.780;7.726;2022-12-18T05:19:47;13.45;;;8.85;;
11823;SDS011;5969;50.780;7.726;2022-12-18T05:22:14;12.68;;;8.43;;
11823;SDS011;5969;50.780;7.726;2022-12-18T05:24:41;14.70;;;8.82;;
11823;SDS011;5969;50.780;7.726;2022-12-18T05:27:09;13.98;;;7.85;;
11823;SDS011;5969;50.780;7.726;2022-12-18T05:29:36;12.88;;;8.73;;
11823;SDS011;5969;50.780;7.726;2022-12-18T05:32:03;12.70;;;7.75;;
11823;SDS011;5969;50.780;7.726;2022-12-18T05:34:30;14.50;;;8.48;;
11823;SDS011;5969;50.780;7.726;2022-12-18T05:36:58;16.55;;;8.13;;
11823;SDS011;5969;50.780;7.726;2022-12-18T05:39:25;14.80;;;8.93;;
11823;SDS011;5969;50.780;7.726;2022-12-18T05:41:52;12.38;;;8.02;;
11823;SDS011;5969;50.780;7.726;2022-12-18T05:44:20;12.32;;;7.93;;
11823;SDS011;5969;50.780;7.726;2022-12-18T05:46:46;12.70;;;8.75;;
11823;SDS011;5969;50.780;7.726;2022-12-18T05:49:13;14.45;;;9.27;;
11823;SDS011;5969;50.780;7.726;2022-12-18T05:51:40;14.63;;;8.43;;
11823;SDS011;5969;50.780;7.726;2022-12-18T05:54:07;12.75;;;7.35;;
11823;SDS011;5969;50.780;7.726;2022-12-18T05:56:34;12.98;;;8.45;;
11823;SDS011;5969;50.780;7.726;2022-12-18T05:59:00;13.70;;;8.20;;
11823;SDS011;5969;50.780;7.726;2022-12-18T06:01:29;10.68;;;8.52;;
11823;SDS011;5969;50.780;7.726;2022-12-18T06:03:55;12.20;;;7.82;;
11823;SDS011;5969;50.780;7.726;2022-12-18T06:06:23;11.38;;;7.38;;
11823;SDS011;5969;50.780;7.726;2022-12-18T06:08:51;13.55;;;8.18;;
11823;SDS011;5969;50.780;7.726;2022-12-18T06:11:20;13.55;;;8.32;;
11823;SDS011;5969;50.780;7.726;2022-12-18T06:13:49;11.45;;;7.93;;
11823;SDS011;5969;50.780;7.726;2022-12-18T06:16:17;13.60;;;7.90;;
11823;SDS011;5969;50.780;7.726;2022-12-18T06:18:45;12.80;;;8.35;;
11823;SDS011;5969;50.780;7.726;2022-12-18T06:21:12;10.80;;;7.75;;
11823;SDS011;5969;50.780;7.726;2022-12-18T06:23:39;13.35;;;8.00;;
11823;SDS011;5969;50.780;7.726;2022-12-18T06:26:07;11.95;;;7.57;;
11823;SDS011;5969;50.780;7.726;2022-12-18T06:28:36;13.32;;;8.30;;
11823;SDS011;5969;50.780;7.726;2022-12-18T06:31:03;12.13;;;7.70;;
11823;SDS011;5969;50.780;7.726;2022-12-18T06:33:30;14.75;;;8.35;;
11823;SDS011;5969;50.780;7.726;2022-12-18T06:36:01;14.10;;;8.88;;
11823;SDS011;5969;50.780;7.726;2022-12-18T06:38:29;13.77;;;9.00;;
11823;SDS011;5969;50.780;7.726;2022-12-18T06:40:56;13.65;;;8.80;;
11823;SDS011;5969;50.780;7.726;2022-12-18T06:43:23;22.63;;;11.43;;
11823;SDS011;5969;50.780;7.726;2022-12-18T06:45:50;27.25;;;13.00;;
11823;SDS011;5969;50.780;7.726;2022-12-18T06:48:18;23.38;;;12.80;;
11823;SDS011;5969;50.780;7.726;2022-12-18T06:50:45;17.55;;;9.60;;
11823;SDS011;5969;50.780;7.726;2022-12-18T06:53:13;15.80;;;8.88;;
11823;SDS011;5969;50.780;7.726;2022-12-18T06:55:40;13.25;;;8.32;;
11823;SDS011;5969;50.780;7.726;2022-12-18T06:58:07;14.63;;;8.02;;
11823;SDS011;5969;50.780;7.726;2022-12-18T07:00:35;13.65;;;8.07;;
11823;SDS011;5969;50.780;7.726;2022-12-18T07:03:02;13.75;;;7.72;;
11823;SDS011;5969;50.780;7.726;2022-12-18T07:05:28;13.75;;;7.90;;
11823;SDS011;5969;50.780;7.726;2022-12-18T07:07:55;11.23;;;7.32;;
11823;SDS011;5969;50.780;7.726;2022-12-18T07:10:24;10.80;;;7.55;;
11823;SDS011;5969;50.780;7.726;2022-12-18T07:12:51;14.65;;;8.95;;
11823;SDS011;5969;50.780;7.726;2022-12-18T07:15:17;12.48;;;8.23;;
11823;SDS011;5969;50.780;7.726;2022-12-18T07:17:44;14.77;;;7.93;;
11823;SDS011;5969;50.780;7.726;2022-12-18T07:20:11;12.45;;;7.65;;
11823;SDS011;5969;50.780;7.726;2022-12-18T07:22:38;12.30;;;7.65;;
11823;SDS011;5969;50.780;7.726;2022-12-18T07:25:05;12.75;;;8.27;;
11823;SDS011;5969;50.780;7.726;2022-12-18T07:27:34;11.85;;;8.02;;
11823;SDS011;5969;50.780;7.726;2022-12-18T07:30:01;15.07;;;8.85;;
11823;SDS011;5969;50.780;7.726;2022-12-18T07:32:29;13.55;;;8.55;;
11823;SDS011;5969;50.780;7.726;2022-12-18T07:34:59;13.70;;;8.27;;
11823;SDS011;5969;50.780;7.726;2022-12-18T07:37:27;17.17;;;9.10;;
11823;SDS011;5969;50.780;7.726;2022-12-18T07:39:56;15.00;;;10.00;;
11823;SDS011;5969;50.780;7.726;2022-12-18T07:42:23;12.77;;;8.85;;
11823;SDS011;5969;50.780;7.726;2022-12-18T07:45:01;13.85;;;8.60;;
11823;SDS011;5969;50.780;7.726;2022-12-18T07:47:29;13.52;;;8.88;;
11823;SDS011;5969;50.780;7.726;2022-12-18T07:49:56;13.13;;;8.15;;
11823;SDS011;5969;50.780;7.726;2022-12-18T07:52:23;12.80;;;8.25;;
11823;SDS011;5969;50.780;7.726;2022-12-18T07:54:50;13.38;;;8.27;;
11823;SDS011;5969;50.780;7.726;2022-12-18T07:57:16;13.07;;;8.15;;
11823;SDS011;5969;50.780;7.726;2022-12-18T07:59:43;12.35;;;8.15;;
11823;SDS011;5969;50.780;7.726;2022-12-18T08:02:12;11.98;;;8.35;;
11823;SDS011;5969;50.780;7.726;2022-12-18T08:04:38;14.32;;;8.88;;
11823;SDS011;5969;50.780;7.726;2022-12-18T08:07:05;11.60;;;8.38;;
11823;SDS011;5969;50.780;7.726;2022-12-18T08:09:32;12.68;;;8.13;;
11823;SDS011;5969;50.780;7.726;2022-12-18T08:11:59;18.95;;;10.80;;
11823;SDS011;5969;50.780;7.726;2022-12-18T08:14:29;27.05;;;14.55;;
11823;SDS011;5969;50.780;7.726;2022-12-18T08:16:55;35.42;;;19.40;;
11823;SDS011;5969;50.780;7.726;2022-12-18T08:19:24;29.52;;;17.17;;
11823;SDS011;5969;50.780;7.726;2022-12-18T08:21:51;22.25;;;13.77;;
11823;SDS011;5969;50.780;7.726;2022-12-18T08:24:18;26.35;;;13.35;;
11823;SDS011;5969;50.780;7.726;2022-12-18T08:26:44;18.17;;;12.40;;
11823;SDS011;5969;50.780;7.726;2022-12-18T08:29:11;17.38;;;10.35;;
11823;SDS011;5969;50.780;7.726;2022-12-18T08:31:38;13.90;;;8.80;;
11823;SDS011;5969;50.780;7.726;2022-12-18T08:34:07;12.18;;;8.63;;
11823;SDS011;5969;50.780;7.726;2022-12-18T08:36:35;17.73;;;9.18;;
11823;SDS011;5969;50.780;7.726;2022-12-18T08:39:02;12.18;;;8.10;;
11823;SDS011;5969;50.780;7.726;2022-12-18T08:41:29;13.82;;;9.02;;
11823;SDS011;5969;50.780;7.726;2022-12-18T08:43:56;13.70;;;8.82;;
11823;SDS011;5969;50.780;7.726;2022-12-18T08:46:40;13.23;;;8.95;;
11823;SDS011;5969;50.780;7.726;2022-12-18T08:49:09;15.73;;;9.20;;
11823;SDS011;5969;50.780;7.726;2022-12-18T08:51:38;13.98;;;8.93;;
11823;SDS011;5969;50.780;7.726;2022-12-18T08:54:06;14.27;;;9.77;;
11823;SDS011;5969;50.780;7.726;2022-12-18T08:56:33;13.55;;;9.70;;
11823;SDS011;5969;50.780;7.726;2022-12-18T08:59:00;13.27;;;9.70;;
11823;SDS011;5969;50.780;7.726;2022-12-18T09:01:29;12.13;;;8.40;;
11823;SDS011;5969;50.780;7.726;2022-12-18T09:03:56;14.32;;;9.88;;
11823;SDS011;5969;50.780;7.726;2022-12-18T09:06:23;14.15;;;9.32;;
11823;SDS011;5969;50.780;7.726;2022-12-18T09:08:55;16.90;;;9.43;;
11823;SDS011;5969;50.780;7.726;2022-12-18T09:11:25;15.80;;;9.13;;
11823;SDS011;5969;50.780;7.726;2022-12-18T09:13:53;13.10;;;9.27;;
11823;SDS011;5969;50.780;7.726;2022-12-18T09:16:20;16.33;;;9.65;;
11823;SDS011;5969;50.780;7.726;2022-12-18T09:18:48;17.73;;;9.75;;
11823;SDS011;5969;50.780;7.726;2022-12-18T09:21:15;13.13;;;9.57;;
11823;SDS011;5969;50.780;7.726;2022-12-18T09:23:43;15.73;;;10.23;;
11823;SDS011;5969;50.780;7.726;2022-12-18T09:26:11;19.40;;;11.38;;
11823;SDS011;5969;50.780;7.726;2022-12-18T09:28:38;20.42;;;12.35;;
11823;SDS011;5969;50.780;7.726;2022-12-18T09:31:06;18.00;;;11.80;;
11823;SDS011;5969;50.780;7.726;2022-12-18T09:33:33;19.77;;;14.05;;
11823;SDS011;5969;50.780;7.726;2022-12-18T09:36:01;24.00;;;14.75;;
11823;SDS011;5969;50.780;7.726;2022-12-18T09:38:29;21.42;;;13.45;;
11823;SDS011;5969;50.780;7.726;2022-12-18T09:40:57;19.73;;;12.82;;
11823;SDS011;5969;50.780;7.726;2022-12-18T09:43:29;17.05;;;11.15;;
11823;SDS011;5969;50.780;7.726;2022-12-18T09:46:04;17.63;;;13.18;;
11823;SDS011;5969;50.780;7.726;2022-12-18T09:48:35;18.60;;;12.98;;
11823;SDS011;5969;50.780;7.726;2022-12-18T09:51:05;17.75;;;11.63;;
11823;SDS011;5969;50.780;7.726;2022-12-18T09:53:38;19.60;;;10.73;;
11823;SDS011;5969;50.780;7.726;2022-12-18T09:56:10;19.08;;;12.38;;
11823;SDS011;5969;50.780;7.726;2022-12-18T09:58:43;18.13;;;10.90;;
11823;SDS011;5969;50.780;7.726;2022-12-18T10:01:14;13.90;;;9.40;;
11823;SDS011;5969;50.780;7.726;2022-12-18T10:03:44;12.77;;;9.43;;
11823;SDS011;5969;50.780;7.726;2022-12-18T10:06:12;15.18;;;10.10;;
11823;SDS011;5969;50.780;7.726;2022-12-18T10:08:45;14.60;;;9.80;;
11823;SDS011;5969;50.780;7.726;2022-12-18T10:11:29;13.60;;;9.57;;
11823;SDS011;5969;50.780;7.726;2022-12-18T10:14:06;14.05;;;9.27;;
11823;SDS011;5969;50.780;7.726;2022-12-18T10:16:42;14.02;;;9.35;;
11823;SDS011;5969;50.780;7.726;2022-12-18T10:19:20;14.23;;;9.40;;
11823;SDS011;5969;50.780;7.726;2022-12-18T10:22:00;13.60;;;9.82;;
11823;SDS011;5969;50.780;7.726;2022-12-18T10:24:38;15.13;;;10.73;;
11823;SDS011;5969;50.780;7.726;2022-12-18T10:27:11;15.77;;;11.18;;
11823;SDS011;5969;50.780;7.726;2022-12-18T10:29:42;15.48;;;11.10;;
11823;SDS011;5969;50.780;7.726;2022-12-18T10:32:13;16.65;;;12.02;;
11823;SDS011;5969;50.780;7.726;2022-12-18T10:34:44;17.63;;;10.43;;
11823;SDS011;5969;50.780;7.726;2022-12-18T10:37:12;11.70;;;9.23;;
11823;SDS011;5969;50.780;7.726;2022-12-18T10:39:44;12.95;;;9.23;;
11823;SDS011;5969;50.780;7.726;2022-12-18T10:42:11;13.00;;;9.50;;
11823;SDS011;5969;50.780;7.726;2022-12-18T10:44:45;13.13;;;9.13;;
11823;SDS011;5969;50.780;7.726;2022-12-18T10:47:26;15.50;;;10.23;;
11823;SDS011;5969;50.780;7.726;2022-12-18T10:49:52;13.65;;;9.85;;
11823;SDS011;5969;50.780;7.726;2022-12-18T10:52:21;12.02;;;8.82;;
11823;SDS011;5969;50.780;7.726;2022-12-18T10:54:51;15.05;;;10.15;;
11823;SDS011;5969;50.780;7.726;2022-12-18T10:57:32;13.88;;;9.50;;
11823;SDS011;5969;50.780;7.726;2022-12-18T11:02:49;13.10;;;9.68;;
11823;SDS011;5969;50.780;7.726;2022-12-18T11:05:22;11.95;;;9.30;;
11823;SDS011;5969;50.780;7.726;2022-12-18T11:07:55;13.65;;;9.93;;
11823;SDS011;5969;50.780;7.726;2022-12-18T11:10:25;15.27;;;9.90;;
11823;SDS011;5969;50.780;7.726;2022-12-18T11:12:54;13.20;;;9.88;;
11823;SDS011;5969;50.780;7.726;2022-12-18T11:15:23;11.77;;;9.25;;
11823;SDS011;5969;50.780;7.726;2022-12-18T11:17:54;12.48;;;9.43;;
11823;SDS011;5969;50.780;7.726;2022-12-18T11:20:25;13.80;;;10.32;;
11823;SDS011;5969;50.780;7.726;2022-12-18T11:22:58;13.20;;;9.55;;
11823;SDS011;5969;50.780;7.726;2022-12-18T11:25:26;12.43;;;9.43;;
11823;SDS011;5969;50.780;7.726;2022-12-18T11:27:54;12.15;;;9.30;;
11823;SDS011;5969;50.780;7.726;2022-12-18T11:30:25;14.13;;;9.60;;
11823;SDS011;5969;50.780;7.726;2022-12-18T11:32:58;14.20;;;9.65;;
11823;SDS011;5969;50.780;7.726;2022-12-18T11:35:35;12.77;;;9.57;;
11823;SDS011;5969;50.780;7.726;2022-12-18T11:38:11;15.38;;;10.93;;
11823;SDS011;5969;50.780;7.726;2022-12-18T11:40:44;15.25;;;10.90;;
11823;SDS011;5969;50.780;7.726;2022-12-18T11:43:16;14.95;;;10.93;;
11823;SDS011;5969;50.780;7.726;2022-12-18T11:45:50;11.63;;;9.68;;
11823;SDS011;5969;50.780;7.726;2022-12-18T11:48:22;11.77;;;8.90;;
11823;SDS011;5969;50.780;7.726;2022-12-18T11:50:53;12.38;;;8.90;;
11823;SDS011;5969;50.780;7.726;2022-12-18T11:53:21;10.43;;;8.02;;
11823;SDS011;5969;50.780;7.726;2022-12-18T11:55:51;11.00;;;8.68;;
11823;SDS011;5969;50.780;7.726;2022-12-18T11:58:32;9.70;;;7.80;;
11823;SDS011;5969;50.780;7.726;2022-12-18T12:01:15;10.02;;;8.05;;
11823;SDS011;5969;50.780;7.726;2022-12-18T12:03:58;11.15;;;8.07;;
11823;SDS011;5969;50.780;7.726;2022-12-18T12:06:42;10.73;;;8.27;;
11823;SDS011;5969;50.780;7.726;2022-12-18T12:09:19;10.30;;;8.30;;
11823;SDS011;5969;50.780;7.726;2022-12-18T12:11:56;9.82;;;8.00;;
11823;SDS011;5969;50.780;7.726;2022-12-18T12:14:37;11.32;;;7.85;;
11823;SDS011;5969;50.780;7.726;2022-12-18T12:17:17;13.25;;;9.23;;
11823;SDS011;5969;50.780;7.726;2022-12-18T12:20:06;10.43;;;8.38;;
11823;SDS011;5969;50.780;7.726;2022-12-18T12:22:44;12.20;;;9.25;;
11823;SDS011;5969;50.780;7.726;2022-12-18T12:25:17;11.80;;;8.88;;
11823;SDS011;5969;50.780;7.726;2022-12-18T12:27:54;11.02;;;8.52;;
11823;SDS011;5969;50.780;7.726;2022-12-18T12:30:30;15.15;;;9.40;;
11823;SDS011;5969;50.780;7.726;2022-12-18T12:33:11;12.50;;;9.30;;
11823;SDS011;5969;50.780;7.726;2022-12-18T12:35:50;11.20;;;8.48;;
11823;SDS011;5969;50.780;7.726;2022-12-18T12:38:32;15.90;;;10.32;;
11823;SDS011;5969;50.780;7.726;2022-12-18T12:41:03;10.98;;;8.82;;
11823;SDS011;5969;50.780;7.726;2022-12-18T12:43:52;14.10;;;9.27;;
11823;SDS011;5969;50.780;7.726;2022-12-18T12:46:22;14.32;;;9.70;;
11823;SDS011;5969;50.780;7.726;2022-12-18T12:48:53;12.75;;;9.55;;
11823;SDS011;5969;50.780;7.726;2022-12-18T12:51:23;14.93;;;10.73;;
11823;SDS011;5969;50.780;7.726;2022-12-18T12:53:54;16.25;;;10.93;;
11823;SDS011;5969;50.780;7.726;2022-12-18T12:56:24;16.83;;;11.70;;
11823;SDS011;5969;50.780;7.726;2022-12-18T12:58:57;20.77;;;12.52;;
11823;SDS011;5969;50.780;7.726;2022-12-18T13:01:28;21.73;;;13.68;;
11823;SDS011;5969;50.780;7.726;2022-12-18T13:04:06;14.43;;;10.73;;
11823;SDS011;5969;50.780;7.726;2022-12-18T13:06:42;14.98;;;11.45;;
11823;SDS011;5969;50.780;7.726;2022-12-18T13:09:12;14.85;;;10.35;;
11823;SDS011;5969;50.780;7.726;2022-12-18T13:11:39;13.95;;;10.73;;
11823;SDS011;5969;50.780;7.726;2022-12-18T13:14:27;15.43;;;11.05;;
11823;SDS011;5969;50.780;7.726;2022-12-18T13:19:43;15.43;;;11.48;;
11823;SDS011;5969;50.780;7.726;2022-12-18T13:22:20;16.45;;;11.60;;
11823;SDS011;5969;50.780;7.726;2022-12-18T13:24:48;17.65;;;11.23;;
11823;SDS011;5969;50.780;7.726;2022-12-18T13:30:41;15.65;;;11.13;;
11823;SDS011;5969;50.780;7.726;2022-12-18T13:36:15;17.65;;;11.50;;
11823;SDS011;5969;50.780;7.726;2022-12-18T13:39:08;18.58;;;11.98;;
11823;SDS011;5969;50.780;7.726;2022-12-18T13:45:37;17.08;;;11.85;;
11823;SDS011;5969;50.780;7.726;2022-12-18T13:48:13;19.60;;;12.45;;
11823;SDS011;5969;50.780;7.726;2022-12-18T13:50:49;17.70;;;12.68;;
11823;SDS011;5969;50.780;7.726;2022-12-18T13:53:22;18.23;;;12.45;;
11823;SDS011;5969;50.780;7.726;2022-12-18T13:55:52;19.15;;;13.50;;
11823;SDS011;5969;50.780;7.726;2022-12-18T13:58:19;19.83;;;12.40;;
11823;SDS011;5969;50.780;7.726;2022-12-18T14:00:46;17.40;;;12.48;;
11823;SDS011;5969;50.780;7.726;2022-12-18T14:03:17;18.50;;;13.25;;
11823;SDS011;5969;50.780;7.726;2022-12-18T14:05:46;19.17;;;13.13;;
11823;SDS011;5969;50.780;7.726;2022-12-18T14:08:20;20.40;;;12.88;;
11823;SDS011;5969;50.780;7.726;2022-12-18T14:10:51;21.58;;;13.43;;
11823;SDS011;5969;50.780;7.726;2022-12-18T14:13:19;17.63;;;12.73;;
11823;SDS011;5969;50.780;7.726;2022-12-18T14:15:50;18.55;;;12.95;;
11823;SDS011;5969;50.780;7.726;2022-12-18T14:18:19;17.85;;;12.32;;
11823;SDS011;5969;50.780;7.726;2022-12-18T14:20:49;19.75;;;13.70;;
11823;SDS011;5969;50.780;7.726;2022-12-18T14:23:29;21.17;;;14.07;;
11823;SDS011;5969;50.780;7.726;2022-12-18T14:25:57;20.58;;;13.88;;
11823;SDS011;5969;50.780;7.726;2022-12-18T14:28:25;19.52;;;13.52;;
11823;SDS011;5969;50.780;7.726;2022-12-18T14:30:56;19.08;;;12.88;;
11823;SDS011;5969;50.780;7.726;2022-12-18T14:33:23;18.27;;;12.98;;
11823;SDS011;5969;50.780;7.726;2022-12-18T14:35:52;19.30;;;13.20;;
11823;SDS011;5969;50.780;7.726;2022-12-18T14:38:29;19.63;;;12.90;;
11823;SDS011;5969;50.780;7.726;2022-12-18T14:40:58;19.55;;;13.18;;
11823;SDS011;5969;50.780;7.726;2022-12-18T14:43:26;23.63;;;14.95;;
11823;SDS011;5969;50.780;7.726;2022-12-18T14:45:54;21.77;;;15.15;;
11823;SDS011;5969;50.780;7.726;2022-12-18T14:48:24;19.58;;;13.95;;
11823;SDS011;5969;50.780;7.726;2022-12-18T14:51:02;18.80;;;13.30;;
11823;SDS011;5969;50.780;7.726;2022-12-18T14:53:34;19.48;;;13.00;;
11823;SDS011;5969;50.780;7.726;2022-12-18T14:56:12;19.63;;;13.45;;
11823;SDS011;5969;50.780;7.726;2022-12-18T14:58:48;24.15;;;15.90;;
11823;SDS011;5969;50.780;7.726;2022-12-18T15:01:18;23.13;;;14.82;;
11823;SDS011;5969;50.780;7.726;2022-12-18T15:03:51;24.02;;;16.63;;
11823;SDS011;5969;50.780;7.726;2022-12-18T15:06:24;21.33;;;14.57;;
11823;SDS011;5969;50.780;7.726;2022-12-18T15:08:55;23.02;;;16.20;;
11823;SDS011;5969;50.780;7.726;2022-12-18T15:11:26;22.38;;;14.82;;
11823;SDS011;5969;50.780;7.726;2022-12-18T15:13:56;22.75;;;14.27;;
11823;SDS011;5969;50.780;7.726;2022-12-18T15:16:24;22.02;;;14.38;;